Rorichmoor — V2BV7 — position and weather

sailwx.info

Track history (hours):
 
Tides and Currents Weather Stations Pressure Air Temp Water Temp Dewpoint Dewpoint Depression Visibility Wind Speed Wind Dir Waves Ship Positions

Rorichmoor

Last reported at 2016-Apr-30 05:21 UTC. Time now 2016-May-04 01:56 UTC.
Position N 37°58' W 009°30'.

Length 80 m; draft 3.1 m.

Type: Cargo ship. MMSI: 304938000.

Date/timePositionNaut miles runAvg speedWind from/ knotsBaromVisibWave heightAir tempDewpointWater temp
2016-Apr-30 05:21N 37°58' W 009°30'26 9.4
2016-Apr-30 02:31N 38°24' W 009°38'9 9.4
2016-Apr-30 01:31N 38°33' W 009°41'9 9.6
2016-Apr-30 00:33N 38°42' W 009°43'6 0.1
2016-Apr-27 23:28N 38°38' W 009°38'11 8.6
2016-Apr-27 22:13N 38°30' W 009°28'6 9.0
2016-Apr-27 21:33N 38°26' W 009°23'9 8.7
2016-Apr-27 20:33N 38°20' W 009°15'9 9.2
2016-Apr-27 19:33N 38°22' W 009°03'9 0.4
2016-Apr-26 21:21N 38°29' W 008°56'6 6.9
2016-Apr-26 20:31N 38°24' W 008°59'2 2.5
2016-Apr-26 19:31N 38°22' W 009°00'3 3.2
2016-Apr-26 18:33N 38°19' W 009°01'8 8.3
2016-Apr-26 17:33N 38°11' W 009°04'8 8.2
2016-Apr-26 16:33N 38°03' W 009°06'8 8.3
2016-Apr-26 15:33N 37°54' W 009°08'214 6.9
2016-Apr-25 08:32N 36°00' W 005°22'235 8.4
2016-Apr-24 04:33N 37°24' W 000°48'192 8.7
2016-Apr-23 06:33N 39°47' E 001°57'9 8.9
2016-Apr-23 05:33N 39°52' E 002°06'9 8.7
2016-Apr-23 04:33N 39°58' E 002°14'9 8.7
2016-Apr-23 03:33N 40°04' E 002°23'8 8.4
2016-Apr-23 02:33N 40°09' E 002°31'8 8.3
2016-Apr-23 01:33N 40°15' E 002°39'8 8.3
2016-Apr-23 00:33N 40°20' E 002°47'9 8.9
2016-Apr-22 23:33N 40°26' E 002°56'9 8.8
2016-Apr-22 22:33N 40°32' E 003°05'9 8.8
2016-Apr-22 21:33N 40°38' E 003°13'323 9.5
2016-Apr-21 11:26N 44°12' E 008°41'8 9.5
2016-Apr-21 10:33N 44°18' E 008°49'7 6.3
2016-Apr-21 09:24N 44°24' E 008°52'0 0.0
2016-Apr-21 08:30N 44°24' E 008°52'0 0.0
2016-Apr-21 07:30N 44°24' E 008°52'0 0.0
2016-Apr-21 06:30N 44°24' E 008°52'0 0.0
2016-Apr-21 05:30N 44°24' E 008°52'0 0.0
2016-Apr-21 04:24N 44°24' E 008°52'0 0.0
2016-Apr-21 03:24N 44°24' E 008°52'0 0.0
2016-Apr-21 02:18N 44°24' E 008°52'0 0.0
2016-Apr-21 01:30N 44°24' E 008°52'0 0.0
2016-Apr-21 00:30N 44°24' E 008°52'0 0.0
2016-Apr-20 23:30N 44°24' E 008°52'0 0.0
2016-Apr-20 22:30N 44°24' E 008°52'0 0.0
2016-Apr-20 21:24N 44°24' E 008°52'0 0.0
2016-Apr-20 20:30N 44°24' E 008°52'0 0.0
2016-Apr-20 19:30N 44°24' E 008°52'0 0.0
2016-Apr-20 18:24N 44°24' E 008°52'0 0.0
2016-Apr-20 17:30N 44°24' E 008°52'0 0.0
2016-Apr-20 16:30N 44°24' E 008°52'0 0.0
2016-Apr-20 15:30N 44°24' E 008°52'0 0.0
2016-Apr-20 14:30N 44°24' E 008°52'0 0.0
2016-Apr-20 13:30N 44°24' E 008°52'0 0.0
2016-Apr-20 12:30N 44°24' E 008°52'0 0.0
2016-Apr-20 11:30N 44°24' E 008°52'0 0.0
2016-Apr-20 10:30N 44°24' E 008°52'0 0.0
2016-Apr-20 09:30N 44°24' E 008°52'0 0.0
2016-Apr-20 08:30N 44°24' E 008°52'0 0.0
2016-Apr-20 07:30N 44°24' E 008°52'0 0.0
2016-Apr-20 06:30N 44°24' E 008°52'0 0.0
2016-Apr-20 05:30N 44°24' E 008°52'  
Track history (hours):
 
Tides and Currents Weather Stations Pressure Air Temp Water Temp Dewpoint Dewpoint Depression Visibility Wind Speed Wind Dir Waves Ship Positions

Rorichmoor

Last reported at 2016-Apr-30 05:21 UTC. Time now 2016-May-04 01:56 UTC.
Position N 37°58' W 009°30'.

Length 80 m; draft 3.1 m.

Type: Cargo ship. MMSI: 304938000.

Date/timePositionNaut miles runAvg speedWind from/ knotsBaromVisibWave heightAir tempDewpointWater temp
2016-Apr-30 05:21N 37°58' W 009°30'26 9.4
2016-Apr-30 02:31N 38°24' W 009°38'9 9.4
2016-Apr-30 01:31N 38°33' W 009°41'9 9.6
2016-Apr-30 00:33N 38°42' W 009°43'6 0.1
2016-Apr-27 23:28N 38°38' W 009°38'11 8.6
2016-Apr-27 22:13N 38°30' W 009°28'6 9.0
2016-Apr-27 21:33N 38°26' W 009°23'9 8.7
2016-Apr-27 20:33N 38°20' W 009°15'9 9.2
2016-Apr-27 19:33N 38°22' W 009°03'9 0.4
2016-Apr-26 21:21N 38°29' W 008°56'6 6.9
2016-Apr-26 20:31N 38°24' W 008°59'2 2.5
2016-Apr-26 19:31N 38°22' W 009°00'3 3.2
2016-Apr-26 18:33N 38°19' W 009°01'8 8.3
2016-Apr-26 17:33N 38°11' W 009°04'8 8.2
2016-Apr-26 16:33N 38°03' W 009°06'8 8.3
2016-Apr-26 15:33N 37°54' W 009°08'214 6.9
2016-Apr-25 08:32N 36°00' W 005°22'235 8.4
2016-Apr-24 04:33N 37°24' W 000°48'192 8.7
2016-Apr-23 06:33N 39°47' E 001°57'9 8.9
2016-Apr-23 05:33N 39°52' E 002°06'9 8.7
2016-Apr-23 04:33N 39°58' E 002°14'9 8.7
2016-Apr-23 03:33N 40°04' E 002°23'8 8.4
2016-Apr-23 02:33N 40°09' E 002°31'8 8.3
2016-Apr-23 01:33N 40°15' E 002°39'8 8.3
2016-Apr-23 00:33N 40°20' E 002°47'9 8.9
2016-Apr-22 23:33N 40°26' E 002°56'9 8.8
2016-Apr-22 22:33N 40°32' E 003°05'9 8.8
2016-Apr-22 21:33N 40°38' E 003°13'323 9.5
2016-Apr-21 11:26N 44°12' E 008°41'8 9.5
2016-Apr-21 10:33N 44°18' E 008°49'7 6.3
2016-Apr-21 09:24N 44°24' E 008°52'0 0.0
2016-Apr-21 08:30N 44°24' E 008°52'0 0.0
2016-Apr-21 07:30N 44°24' E 008°52'0 0.0
2016-Apr-21 06:30N 44°24' E 008°52'0 0.0
2016-Apr-21 05:30N 44°24' E 008°52'0 0.0
2016-Apr-21 04:24N 44°24' E 008°52'0 0.0
2016-Apr-21 03:24N 44°24' E 008°52'0 0.0
2016-Apr-21 02:18N 44°24' E 008°52'0 0.0
2016-Apr-21 01:30N 44°24' E 008°52'0 0.0
2016-Apr-21 00:30N 44°24' E 008°52'0 0.0
2016-Apr-20 23:30N 44°24' E 008°52'0 0.0
2016-Apr-20 22:30N 44°24' E 008°52'0 0.0
2016-Apr-20 21:24N 44°24' E 008°52'0 0.0
2016-Apr-20 20:30N 44°24' E 008°52'0 0.0
2016-Apr-20 19:30N 44°24' E 008°52'0 0.0
2016-Apr-20 18:24N 44°24' E 008°52'0 0.0
2016-Apr-20 17:30N 44°24' E 008°52'0 0.0
2016-Apr-20 16:30N 44°24' E 008°52'0 0.0
2016-Apr-20 15:30N 44°24' E 008°52'0 0.0
2016-Apr-20 14:30N 44°24' E 008°52'0 0.0
2016-Apr-20 13:30N 44°24' E 008°52'0 0.0
2016-Apr-20 12:30N 44°24' E 008°52'0 0.0
2016-Apr-20 11:30N 44°24' E 008°52'0 0.0
2016-Apr-20 10:30N 44°24' E 008°52'0 0.0
2016-Apr-20 09:30N 44°24' E 008°52'0 0.0
2016-Apr-20 08:30N 44°24' E 008°52'0 0.0
2016-Apr-20 07:30N 44°24' E 008°52'0 0.0
2016-Apr-20 06:30N 44°24' E 008°52'0 0.0
2016-Apr-20 05:30N 44°24' E 008°52'  

Dump ship's entire track history